Shrewsbury, United Kingdom
Current Conditions -  °F | °C
As of 2:50 AM on Monday 22 Dec 2014 (Local Time) from EGOS Reporting Station
Overcast Overcast  
Wind Chill: 54°   Ceiling: 1600
Heat Index: 54°   Visibility: 6mi
Dew Point: 50°   Wind: 23mph
Humidity: 88%   Direction: 230°SW
Pressure: 29.94"   Gusts: 36mph
Location:  52.71°N, 2.75°W
Report Text: EGOS 220250Z AUTO 23020G31KT 9999 OVC016/// 12/10 Q1014
Loading
Personal Weather Stations






























Interactive Weather Map New forecast layout! Learn more

10-Day Weather Forecast

Advertisements
Track Severe Weather on mobile